createdAt,value
2023-05-08T00:01:00.244Z,20.00
2023-05-08T00:06:05.785Z,20.00
2023-05-08T00:11:08.937Z,20.00
2023-05-08T00:16:15.794Z,19.90
2023-05-08T00:21:19.076Z,19.90
2023-05-08T00:26:22.596Z,19.80
2023-05-08T00:31:27.459Z,19.80
2023-05-08T00:36:30.646Z,19.70
2023-05-08T00:41:33.794Z,19.70
2023-05-08T00:46:38.780Z,19.70
2023-05-08T00:51:43.374Z,19.60
2023-05-08T00:56:47.112Z,19.60
2023-05-08T01:01:53.119Z,19.50
2023-05-08T01:06:56.341Z,19.50
2023-05-08T01:12:09.872Z,19.40
2023-05-08T01:17:23.501Z,19.30
2023-05-08T01:22:55.076Z,19.20
2023-05-08T01:28:21.339Z,19.10
2023-05-08T01:33:31.754Z,19.10
2023-05-08T01:38:43.905Z,19.00
2023-05-08T01:43:55.216Z,18.90
2023-05-08T01:49:07.464Z,18.80
2023-05-08T01:54:16.525Z,18.70
2023-05-08T01:59:23.737Z,18.70
2023-05-08T02:04:30.114Z,18.60
2023-05-08T02:09:33.673Z,18.50
2023-05-08T02:14:38.921Z,18.40
2023-05-08T02:19:45.781Z,18.30
2023-05-08T02:24:49.550Z,18.20
2023-05-08T02:29:54.505Z,18.20
2023-05-08T02:35:03.655Z,18.10
2023-05-08T02:40:10.343Z,18.00
2023-05-08T02:45:14.189Z,17.90
2023-05-08T02:50:24.654Z,17.80
2023-05-08T02:55:37.361Z,17.80
2023-05-08T03:00:46.261Z,17.70
2023-05-08T03:05:54.824Z,17.60
2023-05-08T03:11:02.337Z,17.50
2023-05-08T03:16:07.517Z,17.40
2023-05-08T03:21:14.156Z,17.30
2023-05-08T03:26:20.333Z,17.20
2023-05-08T03:31:24.332Z,17.20
2023-05-08T03:36:29.055Z,17.10
2023-05-08T03:41:32.627Z,17.10
2023-05-08T03:46:36.895Z,17.00
2023-05-08T03:51:42.316Z,17.00
2023-05-08T03:56:46.097Z,17.00
2023-05-08T04:01:55.557Z,17.00
2023-05-08T04:07:07.595Z,16.90
2023-05-08T04:12:17.982Z,16.90
2023-05-08T04:17:35.826Z,16.80
2023-05-08T04:22:41.925Z,16.80
2023-05-08T04:27:45.755Z,16.80
2023-05-08T04:32:50.243Z,16.80
2023-05-08T04:37:55.279Z,16.80
2023-05-08T04:42:58.567Z,16.80
2023-05-08T04:48:01.810Z,16.80
2023-05-08T04:53:06.311Z,16.80
2023-05-08T04:58:11.440Z,16.80
2023-05-08T05:03:14.658Z,16.80
2023-05-08T05:08:19.326Z,16.80
2023-05-08T05:13:22.712Z,16.90
2023-05-08T05:18:31.804Z,16.90
2023-05-08T05:23:36.354Z,16.90
2023-05-08T05:28:39.589Z,16.90
2023-05-08T05:33:43.494Z,17.00
2023-05-08T05:38:48.099Z,17.00
2023-05-08T05:43:51.306Z,17.00
2023-05-08T05:48:54.434Z,17.00
2023-05-08T05:53:59.308Z,17.00
2023-05-08T05:59:02.581Z,17.00
2023-05-08T06:04:06.184Z,17.00
2023-05-08T06:09:10.763Z,17.00
2023-05-08T06:14:13.833Z,16.90
2023-05-08T06:19:16.970Z,16.90
2023-05-08T06:24:21.456Z,16.90
2023-05-08T06:29:24.544Z,16.90
2023-05-08T06:34:27.691Z,16.90
2023-05-08T06:39:32.166Z,16.80
2023-05-08T14:11:17.999Z,22.30
2023-05-08T14:16:21.206Z,22.40
2023-05-08T14:21:24.366Z,22.40
2023-05-08T14:26:28.906Z,22.30
2023-05-08T14:35:20.866Z,22.30
2023-05-08T14:40:24.740Z,22.00
2023-05-08T14:45:27.963Z,22.00
2023-05-08T14:50:32.497Z,22.00
2023-05-08T14:55:35.951Z,22.00
2023-05-08T15:00:39.749Z,22.00
2023-05-08T15:05:44.759Z,21.90
2023-05-08T15:10:48.010Z,21.90
2023-05-08T15:15:51.289Z,21.90
2023-05-08T15:20:55.914Z,21.90
2023-05-08T15:25:59.042Z,21.90
2023-05-08T15:31:05.117Z,21.90
2023-05-08T15:36:09.934Z,21.80
2023-05-08T15:41:15.436Z,21.80
2023-05-08T15:46:18.925Z,21.80
2023-05-08T15:51:23.532Z,21.90
2023-05-08T15:56:26.584Z,21.90
2023-05-08T16:01:29.714Z,21.90
2023-05-08T16:06:34.312Z,21.90
2023-05-08T16:11:37.504Z,21.90
2023-05-08T16:16:41.256Z,21.80
2023-05-08T16:21:46.844Z,21.80
2023-05-08T16:26:49.915Z,21.80
2023-05-08T16:31:53.219Z,21.80
2023-05-08T16:36:58.496Z,21.80
2023-05-08T16:42:01.893Z,21.80
2023-05-08T16:47:05.317Z,21.80
2023-05-08T16:52:09.976Z,21.80
2023-05-08T16:57:13.073Z,21.80
2023-05-08T17:02:19.057Z,21.80
2023-05-08T17:07:24.568Z,21.80
2023-05-08T17:12:27.772Z,21.90
2023-05-08T17:17:30.854Z,21.90
2023-05-08T17:22:35.430Z,21.90
2023-05-08T17:27:38.627Z,22.00
2023-05-08T17:32:41.743Z,22.10
2023-05-08T17:37:46.286Z,22.20
2023-05-08T17:42:49.453Z,22.10
2023-05-08T17:47:52.756Z,22.10
2023-05-08T17:52:57.540Z,22.00
2023-05-08T17:58:06.287Z,22.00
2023-05-08T18:03:09.655Z,21.90
2023-05-08T18:08:14.356Z,21.90
2023-05-08T18:13:17.676Z,21.80
2023-05-08T18:18:20.940Z,21.80
2023-05-08T18:23:25.502Z,21.80
2023-05-08T18:28:28.846Z,21.70
2023-05-08T18:33:32.084Z,21.70
2023-05-08T18:38:36.940Z,21.70
2023-05-08T18:43:41.375Z,21.60
2023-05-08T18:48:44.971Z,21.60
2023-05-08T18:53:49.520Z,21.50
2023-05-08T18:58:52.661Z,21.50
2023-05-08T19:03:55.875Z,21.40
2023-05-08T19:09:00.483Z,21.30
2023-05-08T19:14:04.055Z,21.20
2023-05-08T19:19:07.248Z,21.20
2023-05-08T19:24:11.837Z,21.00
2023-05-08T19:29:14.952Z,20.90
2023-05-08T19:34:18.308Z,20.90
2023-05-08T19:39:23.099Z,20.70
2023-05-08T19:44:27.382Z,20.60
2023-05-08T19:49:30.542Z,20.50
2023-05-08T19:54:35.301Z,20.40
2023-05-08T19:59:38.495Z,20.30
2023-05-08T20:05:07.867Z,20.20
2023-05-08T20:10:07.309Z,20.20
2023-05-08T20:15:11.825Z,20.10
2023-05-08T20:20:15.455Z,20.00
2023-05-08T20:25:20.416Z,19.90
2023-05-08T20:30:23.924Z,19.80
2023-05-08T20:35:27.318Z,19.70
2023-05-08T20:40:31.956Z,19.60
2023-05-08T20:45:35.118Z,19.60
2023-05-08T20:50:38.325Z,19.50
2023-05-08T20:55:42.830Z,19.40
2023-05-08T21:00:45.913Z,19.40
2023-05-08T21:05:49.008Z,19.30
2023-05-08T21:10:53.786Z,19.20
2023-05-08T21:15:57.112Z,19.10
2023-05-08T21:21:00.212Z,19.00
2023-05-08T21:26:04.692Z,18.90
2023-05-08T21:31:07.970Z,18.80
2023-05-08T21:36:11.185Z,18.70
2023-05-08T21:41:15.926Z,18.60
2023-05-08T21:46:19.064Z,18.50
2023-05-08T21:51:22.268Z,18.50
2023-05-08T21:56:26.814Z,18.40
2023-05-08T22:01:30.115Z,18.30
2023-05-08T22:06:33.538Z,18.20
2023-05-08T22:11:38.199Z,18.10
2023-05-08T22:16:42.402Z,18.00
2023-05-08T22:21:45.579Z,17.90
2023-05-08T22:26:50.189Z,17.80
2023-05-08T22:31:53.410Z,17.80
2023-05-08T22:36:56.700Z,17.70
2023-05-08T22:42:02.142Z,17.60
2023-05-08T22:47:05.740Z,17.60
2023-05-08T22:52:09.238Z,17.50
2023-05-08T22:57:14.814Z,17.40
2023-05-08T23:02:17.967Z,17.40
2023-05-08T23:07:21.246Z,17.30
2023-05-08T23:12:26.062Z,17.20
2023-05-08T23:17:29.413Z,17.10
2023-05-08T23:22:32.567Z,16.90
2023-05-08T23:27:37.030Z,16.80
2023-05-08T23:32:40.357Z,16.60
2023-05-08T23:37:43.490Z,16.50
2023-05-08T23:42:47.987Z,16.40
2023-05-08T23:47:51.128Z,16.30
2023-05-08T23:52:54.370Z,16.20
2023-05-08T23:57:59.272Z,16.20
